Time;durP1;ratioP1;P1;durP2;ratioP2;P2;SDS_P1;SDS_P2;PMS_P1;PMS_P2;Temp;Humidity;BMP_temperature;BMP_pressure;BME280_temperature;BME280_humidity;BME280_pressure;Samples;Min_cycle;Max_cycle;Signal;HPM_P1;HPM_P2
2022/05/01 00:01:15;;;;;;;44.95;25.83;;;9.20;40.60;;;;;;7356971;19;20014;-65
2022/05/01 00:03:45;;;;;;;40.40;26.77;;;9.30;41.30;;;;;;7362836;19;20070;-65
2022/05/01 00:06:15;;;;;;;41.28;26.80;;;9.30;41.60;;;;;;7362946;19;20011;-66
2022/05/01 00:08:45;;;;;;;43.03;26.67;;;9.30;41.40;;;;;;7361667;19;20081;-65
2022/05/01 00:11:15;;;;;;;39.33;26.83;;;9.10;39.40;;;;;;7372341;19;20089;-66
2022/05/01 00:13:48;;;;;;;41.10;26.45;;;9.10;41.40;;;;;;7384842;19;20093;-65
2022/05/01 00:16:18;;;;;;;42.67;28.05;;;9.10;41.50;;;;;;7362347;19;20011;-64
2022/05/01 00:18:48;;;;;;;41.03;27.17;;;9.10;40.60;;;;;;7364615;19;20023;-65
2022/05/01 00:21:18;;;;;;;44.05;27.48;;;9.10;41.40;;;;;;7365093;19;20014;-65
2022/05/01 00:23:48;;;;;;;42.33;27.48;;;9.00;41.40;;;;;;7369785;19;20034;-65
2022/05/01 00:26:18;;;;;;;41.17;26.30;;;9.10;41.40;;;;;;7369379;19;20077;-65
2022/05/01 00:28:51;;;;;;;42.80;27.38;;;9.00;41.40;;;;;;7389803;19;20377;-65
2022/05/01 00:31:21;;;;;;;38.50;26.48;;;9.00;41.10;;;;;;7363007;19;20015;-65
2022/05/01 00:36:33;;;;;;;40.83;26.83;;;9.00;41.20;;;;;;7370216;19;20414;-65
2022/05/01 00:39:09;;;;;;;44.45;27.80;;;9.00;41.40;;;;;;7367579;19;20017;-65
2022/05/01 00:41:41;;;;;;;50.15;29.48;;;9.00;40.50;;;;;;7362478;19;20014;-65
2022/05/01 00:44:15;;;;;;;45.78;28.02;;;9.10;40.30;;;;;;7390627;19;20026;-65
2022/05/01 00:46:47;;;;;;;40.95;27.48;;;9.10;40.20;;;;;;7369776;19;20006;-65
2022/05/01 00:49:18;;;;;;;43.35;28.00;;;9.20;38.90;;;;;;7365702;19;20010;-65
2022/05/01 00:51:50;;;;;;;39.65;25.80;;;9.10;38.70;;;;;;7366582;19;20010;-65
2022/05/01 00:54:22;;;;;;;43.70;27.83;;;9.10;39.50;;;;;;7367321;19;20014;-64
2022/05/01 00:56:55;;;;;;;41.80;26.77;;;9.20;39.10;;;;;;7369584;19;20053;-65
2022/05/01 00:59:28;;;;;;;42.85;26.75;;;9.10;37.90;;;;;;7365474;19;20022;-65
2022/05/01 01:01:58;;;;;;;39.72;26.15;;;9.30;38.80;;;;;;7386545;19;20102;-65
2022/05/01 01:04:29;;;;;;;40.08;27.08;;;9.40;38.50;;;;;;7367761;19;20807;-65
2022/05/01 01:06:59;;;;;;;41.35;27.58;;;9.40;37.50;;;;;;7370067;19;20015;-65
2022/05/01 01:09:29;;;;;;;42.17;26.40;;;9.40;37.50;;;;;;7363232;19;20037;-65
2022/05/01 01:14:44;;;;;;;42.60;26.25;;;9.20;37.40;;;;;;7366955;19;20458;-64
2022/05/01 01:17:14;;;;;;;35.47;24.98;;;9.10;37.20;;;;;;7391055;19;20014;-64
2022/05/01 01:19:44;;;;;;;38.45;24.83;;;9.10;38.70;;;;;;7364446;19;20010;-63
2022/05/01 01:22:18;;;;;;;42.38;26.25;;;9.00;38.80;;;;;;7362756;19;20026;-64
2022/05/01 01:24:48;;;;;;;40.03;26.10;;;9.10;40.60;;;;;;7365722;19;20014;-63
2022/05/01 01:27:19;;;;;;;43.85;27.73;;;9.20;39.30;;;;;;7367388;19;20013;-64
2022/05/01 01:32:34;;;;;;;42.85;27.25;;;9.20;36.30;;;;;;7365285;19;20466;-64
2022/05/01 01:35:06;;;;;;;43.65;27.40;;;9.20;37.30;;;;;;7387348;19;20021;-64
2022/05/01 01:37:39;;;;;;;42.95;25.83;;;9.20;37.40;;;;;;7368408;19;20014;-64
2022/05/01 01:40:11;;;;;;;40.80;25.83;;;9.10;38.10;;;;;;7364904;19;20017;-64
2022/05/01 01:42:41;;;;;;;41.85;24.42;;;9.10;38.40;;;;;;7364582;19;20101;-64
2022/05/01 01:45:12;;;;;;;39.95;24.80;;;9.00;37.80;;;;;;7366968;19;20006;-64
2022/05/01 01:47:43;;;;;;;41.25;27.50;;;9.00;38.80;;;;;;7366433;19;20087;-64
2022/05/01 01:50:15;;;;;;;44.92;27.50;;;9.00;38.50;;;;;;7388727;19;20010;-64
2022/05/01 01:52:49;;;;;;;42.47;27.42;;;9.10;38.60;;;;;;7365345;19;20487;-64
2022/05/01 01:55:20;;;;;;;40.58;25.48;;;9.10;38.50;;;;;;7364070;19;20014;-64
2022/05/01 01:57:50;;;;;;;43.08;26.27;;;9.10;38.60;;;;;;7365058;19;20022;-64
2022/05/01 02:00:20;;;;;;;42.53;26.55;;;9.10;38.60;;;;;;7366364;19;20057;-64
2022/05/01 02:02:49;;;;;;;41.72;27.00;;;9.20;37.60;;;;;;7365090;19;20024;-64
2022/05/01 02:05:19;;;;;;;42.20;27.95;;;9.10;37.90;;;;;;7365614;19;20026;-64
2022/05/01 02:07:52;;;;;;;41.22;27.00;;;9.10;38.90;;;;;;7385504;19;20043;-64
2022/05/01 02:10:22;;;;;;;39.97;25.45;;;9.10;37.30;;;;;;7364037;19;20391;-64
2022/05/01 02:12:53;;;;;;;38.28;25.25;;;9.00;38.40;;;;;;7365742;19;20116;-64
2022/05/01 02:15:23;;;;;;;44.22;28.17;;;9.10;39.20;;;;;;7365607;19;20018;-64
2022/05/01 02:17:53;;;;;;;47.15;26.25;;;9.00;39.50;;;;;;7364907;19;20086;-64
2022/05/01 02:20:23;;;;;;;42.20;25.35;;;8.90;40.00;;;;;;7364036;19;20418;-64
2022/05/01 02:22:56;;;;;;;39.20;25.52;;;8.90;38.60;;;;;;7386020;19;20027;-65
2022/05/01 02:25:28;;;;;;;42.88;26.77;;;9.00;39.60;;;;;;7358857;19;20017;-65
2022/05/01 02:27:58;;;;;;;47.00;26.08;;;8.90;39.30;;;;;;7361526;19;20021;-65
2022/05/01 02:30:28;;;;;;;45.15;28.20;;;8.90;38.10;;;;;;7361038;19;20010;-63
2022/05/01 02:32:58;;;;;;;41.33;26.08;;;9.00;38.90;;;;;;7363324;19;20046;-67
2022/05/01 02:35:28;;;;;;;44.08;27.08;;;9.00;38.10;;;;;;7363483;19;20022;-65
2022/05/01 02:38:01;;;;;;;41.80;26.48;;;9.00;37.20;;;;;;7382050;19;20707;-66
2022/05/01 02:40:32;;;;;;;44.97;26.42;;;8.90;37.40;;;;;;7359787;19;20493;-66
2022/05/01 02:43:05;;;;;;;41.67;26.00;;;8.90;37.10;;;;;;7363452;19;20078;-65
2022/05/01 02:45:35;;;;;;;44.40;25.85;;;9.00;37.20;;;;;;7356295;19;20017;-65
2022/05/01 02:48:06;;;;;;;43.72;27.13;;;9.00;37.20;;;;;;7354487;19;20620;-66
2022/05/01 02:50:36;;;;;;;43.92;24.85;;;9.00;37.30;;;;;;7352711;19;20142;-65
2022/05/01 02:53:08;;;;;;;43.60;28.08;;;9.00;37.10;;;;;;7377304;19;20491;-64
2022/05/01 02:55:38;;;;;;;46.38;25.88;;;8.90;37.10;;;;;;7361974;19;20018;-65
2022/05/01 02:58:08;;;;;;;45.40;25.92;;;8.90;37.20;;;;;;7362144;19;20604;-65
2022/05/01 03:00:40;;;;;;;43.55;25.40;;;8.90;37.80;;;;;;7358183;19;20772;-66
2022/05/01 03:03:10;;;;;;;49.03;27.67;;;9.00;37.20;;;;;;7365814;19;20515;-66
2022/05/01 03:05:40;;;;;;;41.03;26.73;;;8.90;37.10;;;;;;7362337;19;20490;-65
2022/05/01 03:08:14;;;;;;;41.00;26.33;;;9.10;38.00;;;;;;7384504;19;20014;-65
2022/05/01 03:10:44;;;;;;;43.60;27.13;;;9.10;37.90;;;;;;7363845;19;20103;-65
2022/05/01 03:13:18;;;;;;;44.70;26.83;;;9.20;37.30;;;;;;7362071;19;20010;-65
2022/05/01 03:15:49;;;;;;;48.67;27.73;;;9.10;37.20;;;;;;7361535;19;20046;-65
2022/05/01 03:23:47;;;;;;;45.00;26.05;;;9.10;37.20;;;;;;7360956;19;20759;-64
2022/05/01 03:26:18;;;;;;;44.33;27.40;;;9.10;37.20;;;;;;7368675;19;20023;-65
2022/05/01 03:28:49;;;;;;;44.00;26.30;;;9.00;37.20;;;;;;7382541;19;20567;-64
2022/05/01 03:31:21;;;;;;;46.72;26.75;;;9.10;38.20;;;;;;7356783;19;20080;-65
2022/05/01 03:33:51;;;;;;;44.90;26.23;;;9.00;37.00;;;;;;7362651;19;20566;-64
2022/05/01 03:36:21;;;;;;;43.25;27.23;;;9.00;38.60;;;;;;7362652;19;19998;-64
2022/05/01 03:38:53;;;;;;;40.85;25.80;;;9.00;39.50;;;;;;7361313;19;20078;-64
2022/05/01 03:41:23;;;;;;;43.72;26.98;;;9.10;39.40;;;;;;7358073;19;20003;-64
2022/05/01 03:43:53;;;;;;;45.22;27.27;;;9.10;38.90;;;;;;7384343;19;20015;-64
2022/05/01 03:46:23;;;;;;;47.00;26.33;;;9.10;39.40;;;;;;7363691;19;20045;-64
2022/05/01 03:48:53;;;;;;;52.35;28.75;;;9.00;39.00;;;;;;7361970;19;20031;-64
2022/05/01 03:51:23;;;;;;;44.95;27.80;;;9.00;39.10;;;;;;7358667;19;20017;-64
2022/05/01 03:53:56;;;;;;;47.17;27.35;;;8.90;40.70;;;;;;7360701;19;21025;-64
2022/05/01 03:56:26;;;;;;;47.83;28.08;;;8.90;42.00;;;;;;7362614;19;20014;-65
2022/05/01 03:58:55;;;;;;;45.20;27.02;;;9.00;41.60;;;;;;7383223;19;20014;-65
2022/05/01 04:01:26;;;;;;;46.13;26.02;;;9.00;40.60;;;;;;7358531;19;20007;-65
2022/05/01 04:03:56;;;;;;;41.95;26.63;;;8.80;42.00;;;;;;7362483;19;20033;-63
2022/05/01 04:06:26;;;;;;;47.58;28.80;;;8.90;43.50;;;;;;7362470;19;20010;-65
2022/05/01 04:09:00;;;;;;;48.47;28.67;;;8.90;42.40;;;;;;7360316;19;20018;-64
2022/05/01 04:11:30;;;;;;;45.42;28.30;;;8.90;42.50;;;;;;7358423;19;20034;-64
2022/05/01 04:14:01;;;;;;;42.45;27.30;;;8.90;43.00;;;;;;7383164;19;20553;-64
2022/05/01 04:16:31;;;;;;;44.20;27.75;;;8.90;43.70;;;;;;7361450;19;20013;-64
2022/05/01 04:19:01;;;;;;;51.35;30.10;;;8.90;44.10;;;;;;7359847;19;20036;-64
2022/05/01 04:21:31;;;;;;;49.13;29.00;;;8.90;44.60;;;;;;7358834;19;20070;-63
2022/05/01 04:24:03;;;;;;;51.15;29.55;;;8.90;43.60;;;;;;7360850;19;20014;-63
2022/05/01 04:26:33;;;;;;;46.05;29.05;;;8.90;44.20;;;;;;7361661;19;20466;-63
2022/05/01 04:31:45;;;;;;;46.78;28.00;;;8.90;44.80;;;;;;7356925;19;20023;-62
2022/05/01 04:34:15;;;;;;;49.58;30.30;;;8.80;45.90;;;;;;7360066;19;20015;-64
2022/05/01 04:36:45;;;;;;;52.22;31.67;;;8.80;46.50;;;;;;7361612;19;20031;-64
2022/05/01 04:39:18;;;;;;;57.85;30.83;;;8.80;45.60;;;;;;7360142;19;20466;-63
2022/05/01 04:41:47;;;;;;;49.10;31.33;;;8.80;46.10;;;;;;7358877;19;20097;-64
2022/05/01 04:44:17;;;;;;;55.38;31.92;;;8.90;46.60;;;;;;7364145;19;20018;-63
2022/05/01 04:46:49;;;;;;;55.22;32.90;;;8.80;46.10;;;;;;7383903;19;20359;-64
2022/05/01 04:49:20;;;;;;;49.80;30.48;;;8.80;46.20;;;;;;7358882;19;20010;-64
2022/05/01 04:51:50;;;;;;;50.97;30.70;;;8.80;46.70;;;;;;7357386;19;20021;-64
2022/05/01 04:54:23;;;;;;;50.50;31.73;;;8.70;45.40;;;;;;7359518;19;20018;-64
2022/05/01 04:57:09;;;;;;;48.15;31.48;;;8.80;46.20;;;;;;7362245;19;20014;-64
2022/05/01 04:59:40;;;;;;;51.60;31.35;;;8.80;46.50;;;;;;7359794;19;20021;-64
2022/05/01 05:02:11;;;;;;;53.50;30.50;;;8.90;45.80;;;;;;7378781;19;20015;-63
2022/05/01 05:04:41;;;;;;;53.08;31.45;;;8.90;45.10;;;;;;7358810;19;20017;-63
2022/05/01 05:07:11;;;;;;;50.60;30.35;;;9.00;45.00;;;;;;7367894;19;20006;-64
2022/05/01 05:09:54;;;;;;;51.00;29.42;;;8.90;45.50;;;;;;7366338;19;20042;-65
2022/05/01 05:12:25;;;;;;;47.53;29.80;;;8.90;45.40;;;;;;7364493;19;20362;-63
2022/05/01 05:14:58;;;;;;;46.33;29.27;;;9.00;44.20;;;;;;7365488;19;20506;-63
2022/05/01 05:17:31;;;;;;;50.63;31.45;;;9.00;44.40;;;;;;7368189;19;20010;-63
2022/05/01 05:20:01;;;;;;;48.13;29.80;;;9.00;43.90;;;;;;7388042;19;20086;-63
2022/05/01 05:22:31;;;;;;;49.28;31.75;;;8.90;44.30;;;;;;7363182;19;20073;-63
2022/05/01 05:25:03;;;;;;;47.10;29.05;;;9.00;43.20;;;;;;7365720;19;20415;-64
2022/05/01 05:27:33;;;;;;;44.92;28.58;;;9.00;44.10;;;;;;7367042;19;20501;-63
2022/05/01 05:30:03;;;;;;;42.40;27.45;;;9.10;44.60;;;;;;7365140;19;20501;-63
2022/05/01 05:32:38;;;;;;;44.30;26.88;;;9.20;43.20;;;;;;7363843;19;20925;-63
2022/05/01 05:35:08;;;;;;;45.33;27.10;;;9.00;41.30;;;;;;7387464;19;20446;-63
2022/05/01 05:37:38;;;;;;;44.65;27.42;;;9.10;42.90;;;;;;7367004;19;20026;-63
2022/05/01 05:40:13;;;;;;;45.35;27.50;;;9.30;42.70;;;;;;7367072;19;20082;-63
2022/05/01 05:42:43;;;;;;;46.40;28.27;;;9.30;40.20;;;;;;7363811;19;20366;-63
2022/05/01 05:45:13;;;;;;;41.55;25.85;;;9.30;40.50;;;;;;7364978;19;20077;-64
2022/05/01 05:47:43;;;;;;;45.88;28.35;;;9.40;39.60;;;;;;7365747;19;20017;-63
2022/05/01 05:50:13;;;;;;;40.10;25.70;;;9.50;39.30;;;;;;7389072;19;20003;-63
2022/05/01 05:52:43;;;;;;;45.22;28.35;;;9.40;37.50;;;;;;7362887;19;20013;-63
2022/05/01 05:55:15;;;;;;;42.70;26.63;;;9.40;37.50;;;;;;7364142;19;20021;-63
2022/05/01 05:57:45;;;;;;;44.33;27.15;;;9.40;37.50;;;;;;7365182;19;20045;-63
2022/05/01 06:00:16;;;;;;;39.20;25.08;;;9.50;37.60;;;;;;7367473;19;20162;-63
2022/05/01 06:02:46;;;;;;;41.22;27.20;;;9.70;37.20;;;;;;7362443;19;20014;-63
2022/05/01 06:05:16;;;;;;;41.80;26.80;;;9.60;35.20;;;;;;7377856;19;20015;-64
2022/05/01 06:07:46;;;;;;;39.72;25.25;;;9.80;35.10;;;;;;7386407;19;20025;-64
2022/05/01 06:10:19;;;;;;;41.67;26.13;;;9.60;31.70;;;;;;7363921;19;20018;-63
2022/05/01 06:12:49;;;;;;;42.97;25.75;;;9.60;32.00;;;;;;7362454;19;20013;-62
2022/05/01 06:15:22;;;;;;;43.40;26.08;;;9.70;32.00;;;;;;7364006;19;20023;-64
2022/05/01 06:17:52;;;;;;;38.40;25.02;;;9.70;32.00;;;;;;7363247;19;20013;-64
2022/05/01 06:20:22;;;;;;;39.25;25.63;;;9.80;32.90;;;;;;7366857;19;20687;-64
2022/05/01 06:22:52;;;;;;;37.95;24.10;;;9.70;30.80;;;;;;7384095;19;20077;-64
2022/05/01 06:25:25;;;;;;;42.60;25.63;;;10.00;28.80;;;;;;7364177;19;20014;-64
2022/05/01 06:27:55;;;;;;;38.85;23.85;;;10.10;28.70;;;;;;7361820;19;20023;-64
2022/05/01 06:30:25;;;;;;;36.38;24.42;;;10.40;27.30;;;;;;7366208;19;20094;-63
2022/05/01 06:32:55;;;;;;;40.88;24.25;;;10.50;25.40;;;;;;7361520;19;20107;-64
2022/05/01 06:35:31;;;;;;;33.15;23.05;;;10.50;26.40;;;;;;7363731;19;20024;-64
2022/05/01 06:38:01;;;;;;;37.47;23.75;;;10.30;24.80;;;;;;7384715;19;20238;-64
2022/05/01 06:40:34;;;;;;;39.75;24.25;;;10.70;22.50;;;;;;7365725;19;20017;-63
2022/05/01 06:43:03;;;;;;;35.00;22.67;;;10.30;24.30;;;;;;7359988;19;20026;-64
2022/05/01 06:45:34;;;;;;;31.27;20.95;;;10.50;22.60;;;;;;7363597;19;20010;-64
2022/05/01 06:48:04;;;;;;;37.50;22.65;;;11.00;22.80;;;;;;7362925;19;20010;-64
2022/05/01 06:50:34;;;;;;;37.22;22.30;;;10.90;20.80;;;;;;7365509;19;20010;-64
2022/05/01 06:53:04;;;;;;;33.85;21.65;;;10.40;20.90;;;;;;7382916;19;20006;-63
2022/05/01 06:55:37;;;;;;;35.88;23.33;;;10.50;22.40;;;;;;7362748;19;20050;-63
2022/05/01 06:58:07;;;;;;;35.22;23.15;;;10.50;21.50;;;;;;7361556;19;20018;-63
2022/05/01 07:00:37;;;;;;;34.83;22.95;;;10.50;20.90;;;;;;7365544;19;20010;-63
2022/05/01 07:03:07;;;;;;;31.73;22.65;;;10.70;20.90;;;;;;7360392;19;20013;-64
2022/05/01 07:05:38;;;;;;;32.05;21.67;;;10.80;21.50;;;;;;7361554;19;20315;-63
2022/05/01 07:08:08;;;;;;;34.10;22.73;;;10.80;17.30;;;;;;7383374;19;20255;-63
2022/05/01 07:10:40;;;;;;;39.60;22.30;;;11.10;22.00;;;;;;7365802;19;20043;-64
2022/05/01 07:13:11;;;;;;;30.33;21.60;;;11.30;16.80;;;;;;7360168;19;20016;-64
2022/05/01 07:15:41;;;;;;;31.90;22.27;;;11.20;17.20;;;;;;7362679;19;20010;-64
2022/05/01 07:18:11;;;;;;;34.47;22.27;;;11.40;17.90;;;;;;7361721;19;20010;-63
2022/05/01 07:20:41;;;;;;;34.70;21.67;;;11.70;12.90;;;;;;7364758;19;20090;-64
2022/05/01 07:23:11;;;;;;;30.73;22.00;;;11.70;12.90;;;;;;7384021;19;20023;-64
2022/05/01 07:25:44;;;;;;;26.45;19.95;;;11.70;11.90;;;;;;7361936;19;20018;-64
2022/05/01 07:28:14;;;;;;;27.38;18.60;;;11.40;14.20;;;;;;7358273;19;20070;-63
2022/05/01 07:30:44;;;;;;;30.65;20.75;;;11.40;12.40;;;;;;7364442;19;20403;-63
2022/05/01 07:33:14;;;;;;;27.27;19.48;;;11.60;12.00;;;;;;7359975;19;20010;-64
2022/05/01 07:35:44;;;;;;;25.98;19.23;;;11.70;10.00;;;;;;7362080;19;20014;-63
2022/05/01 07:38:14;;;;;;;27.33;19.50;;;11.90;11.00;;;;;;7383607;19;20014;-64
2022/05/01 07:40:46;;;;;;;27.88;19.58;;;11.60;12.00;;;;;;7363376;19;20014;-64
2022/05/01 07:43:16;;;;;;;27.45;19.25;;;11.80;11.10;;;;;;7360620;19;20518;-64
2022/05/01 07:45:46;;;;;;;27.20;19.02;;;11.70;8.70;;;;;;7361502;19;20375;-64
2022/05/01 07:48:16;;;;;;;23.52;17.95;;;11.60;9.50;;;;;;7360701;19;20006;-63
2022/05/01 07:50:46;;;;;;;22.60;16.67;;;12.10;7.30;;;;;;7362861;19;20053;-63
2022/05/01 07:53:16;;;;;;;29.02;19.63;;;12.20;5.10;;;;;;7382421;19;20006;-64
2022/05/01 07:55:49;;;;;;;25.50;18.70;;;11.90;7.20;;;;;;7360209;19;20102;-64
2022/05/01 07:58:20;;;;;;;26.83;19.08;;;12.10;6.90;;;;;;7359329;19;20023;-64
2022/05/01 08:00:51;;;;;;;27.08;19.27;;;12.10;7.00;;;;;;7361394;19;20478;-63
2022/05/01 08:06:04;;;;;;;25.55;17.75;;;12.20;5.90;;;;;;7360038;19;20044;-62
2022/05/01 08:08:33;;;;;;;23.13;17.10;;;12.50;4.80;;;;;;7360764;19;20102;-64
2022/05/01 08:11:07;;;;;;;23.88;17.58;;;12.70;3.20;;;;;;7382368;19;20003;-64
2022/05/01 08:13:37;;;;;;;24.95;17.70;;;12.60;2.90;;;;;;7359775;19;20013;-65
2022/05/01 08:16:06;;;;;;;24.88;18.60;;;12.50;3.10;;;;;;7361537;19;20070;-64
2022/05/01 08:21:21;;;;;;;24.25;18.20;;;12.50;2.00;;;;;;7359227;19;20102;-64
2022/05/01 08:23:51;;;;;;;22.17;17.20;;;12.20;1.80;;;;;;7362559;19;20014;-63
2022/05/01 08:26:24;;;;;;;25.75;16.67;;;12.20;3.30;;;;;;7359629;19;20018;-64
2022/05/01 08:28:57;;;;;;;25.15;16.40;;;12.40;1.00;;;;;;7381943;19;20347;-64
2022/05/01 08:31:27;;;;;;;25.77;17.17;;;12.50;4.00;;;;;;7356638;19;20089;-64
2022/05/01 08:33:57;;;;;;;23.23;16.83;;;13.10;2.40;;;;;;7361401;19;20018;-63
2022/05/01 08:36:29;;;;;;;21.52;15.75;;;12.90;1.00;;;;;;7362081;19;20002;-63
2022/05/01 08:38:59;;;;;;;20.60;16.40;;;12.70;1.00;;;;;;7360485;19;20627;-64
2022/05/01 08:41:33;;;;;;;22.55;16.40;;;12.60;1.90;;;;;;7363990;19;20011;-64
2022/05/01 08:44:05;;;;;;;;;;;12.90;1.10;;;;;;7390942;19;20029;-64
2022/05/01 08:46:53;;;;;;;20.88;15.15;;;13.10;1.00;;;;;;7366497;19;19986;-64
2022/05/01 08:49:24;;;;;;;22.67;15.80;;;12.50;1.00;;;;;;7365814;19;20071;-63
2022/05/01 08:51:54;;;;;;;20.65;14.93;;;12.50;1.00;;;;;;7363824;19;20002;-64
2022/05/01 08:54:26;;;;;;;21.55;16.02;;;12.50;1.00;;;;;;7365298;19;20087;-64
2022/05/01 08:56:59;;;;;;;23.45;15.98;;;13.00;1.00;;;;;;7368542;19;20077;-64
2022/05/01 08:59:32;;;;;;;21.58;15.23;;;12.90;1.00;;;;;;7366262;19;20010;-64
2022/05/01 09:02:02;;;;;;;20.00;14.85;;;13.10;1.00;;;;;;7384989;19;20900;-64
2022/05/01 09:04:32;;;;;;;18.90;13.82;;;13.20;1.00;;;;;;7366203;19;20951;-64
2022/05/01 09:07:04;;;;;;;16.30;12.98;;;12.80;1.00;;;;;;7367086;19;20002;-64
2022/05/01 09:09:33;;;;;;;20.42;12.43;;;12.90;1.00;;;;;;7365537;19;20006;-63
2022/05/01 09:14:51;;;;;;;19.50;14.85;;;12.80;1.00;;;;;;7366759;19;20015;-64
2022/05/01 09:17:23;;;;;;;22.95;16.45;;;13.10;1.00;;;;;;7367391;19;20017;-64
2022/05/01 09:19:55;;;;;;;19.73;15.60;;;13.40;1.00;;;;;;7387254;19;20003;-64
2022/05/01 09:22:25;;;;;;;21.17;14.45;;;13.70;1.00;;;;;;7362733;19;20022;-64
2022/05/01 09:24:55;;;;;;;21.00;14.80;;;13.50;1.00;;;;;;7366150;19;20021;-65
2022/05/01 09:27:31;;;;;;;21.40;15.13;;;12.80;1.00;;;;;;7365961;19;20027;-64
2022/05/01 09:30:15;;;;;;;21.63;15.75;;;13.20;1.00;;;;;;7365907;19;20018;-64
2022/05/01 09:32:46;;;;;;;20.70;15.63;;;13.30;1.00;;;;;;7362253;19;20494;-64
2022/05/01 09:35:18;;;;;;;20.80;15.68;;;13.40;1.00;;;;;;7385344;19;20018;-66
2022/05/01 09:37:48;;;;;;;22.40;15.45;;;13.60;1.00;;;;;;7386663;19;20031;-64
2022/05/01 09:40:31;;;;;;;19.38;14.98;;;13.70;1.00;;;;;;7367016;19;20112;-64
2022/05/01 09:43:04;;;;;;;23.38;16.35;;;13.70;1.00;;;;;;7362277;19;20084;-64
2022/05/01 09:45:35;;;;;;;18.73;14.80;;;13.80;1.00;;;;;;7365374;19;20627;-64
2022/05/01 09:48:22;;;;;;;20.88;14.57;;;14.00;1.00;;;;;;7364565;19;20014;-65
2022/05/01 09:50:52;;;;;;;19.90;15.10;;;14.00;1.00;;;;;;7364138;19;20019;-64
2022/05/01 09:53:22;;;;;;;21.02;14.95;;;13.90;1.00;;;;;;7363319;19;20104;-63
2022/05/01 09:56:02;;;;;;;19.25;14.43;;;14.00;1.00;;;;;;7384085;19;20021;-64
2022/05/01 09:58:38;;;;;;;19.42;14.43;;;14.00;1.00;;;;;;7363845;19;20027;-63
2022/05/01 10:01:11;;;;;;;19.88;13.88;;;13.70;1.00;;;;;;7363588;19;20441;-63
2022/05/01 10:03:46;;;;;;;19.50;14.63;;;13.90;1.00;;;;;;7363878;19;20018;-63
2022/05/01 10:06:18;;;;;;;19.70;14.80;;;14.20;1.00;;;;;;7365255;19;20382;-64
2022/05/01 10:08:49;;;;;;;18.88;14.52;;;14.20;1.00;;;;;;7363722;19;20031;-63
2022/05/01 10:11:19;;;;;;;18.95;14.35;;;14.00;1.00;;;;;;7362127;19;20077;-63
2022/05/01 10:13:52;;;;;;;19.65;13.98;;;14.40;1.00;;;;;;7386908;19;20014;-63
2022/05/01 10:16:23;;;;;;;19.00;13.93;;;14.70;1.00;;;;;;7365088;19;20006;-65
2022/05/01 10:18:58;;;;;;;19.48;13.63;;;14.70;1.00;;;;;;7363195;19;20013;-63
2022/05/01 10:21:50;;;;;;;15.98;12.40;;;15.20;1.00;;;;;;7359771;19;20025;-63
2022/05/01 10:24:22;;;;;;;16.63;12.45;;;15.10;1.00;;;;;;7364009;19;20013;-64
2022/05/01 10:26:55;;;;;;;16.35;11.93;;;14.90;1.00;;;;;;7364345;19;20508;-64
2022/05/01 10:32:20;;;;;;;17.60;12.50;;;15.00;1.00;;;;;;7364112;19;20010;-63
2022/05/01 10:32:58;;;;;;;19.95;12.93;;;15.10;1.00;;;;;;7358810;19;20018;-64
2022/05/01 10:35:53;;;;;;;18.70;13.30;;;14.20;1.00;;;;;;7363055;19;20110;-64
2022/05/01 10:38:29;;;;;;;18.25;11.90;;;14.10;1.00;;;;;;7362128;19;20089;-64
2022/05/01 10:41:01;;;;;;;17.90;12.23;;;15.00;1.00;;;;;;7385454;19;20018;-64
2022/05/01 10:43:33;;;;;;;15.20;11.45;;;14.70;1.00;;;;;;7361940;19;20014;-65
2022/05/01 10:46:06;;;;;;;13.80;10.15;;;15.40;1.00;;;;;;7364710;19;20502;-64
2022/05/01 10:48:41;;;;;;;14.25;10.43;;;15.60;1.00;;;;;;7361493;19;20017;-63
2022/05/01 10:51:41;;;;;;;15.13;11.15;;;15.30;1.00;;;;;;7361404;19;20010;-64
2022/05/01 10:54:38;;;;;;;12.57;10.05;;;15.10;1.00;;;;;;7363484;19;20015;-64
2022/05/01 10:57:14;;;;;;;15.35;11.32;;;15.20;1.00;;;;;;7363646;19;20010;-63
2022/05/01 10:59:46;;;;;;;13.57;10.65;;;15.10;1.00;;;;;;7362281;19;20021;-64
2022/05/01 11:02:25;;;;;;;13.93;10.90;;;15.20;1.00;;;;;;7363864;19;20038;-65
2022/05/01 11:04:57;;;;;;;15.38;11.35;;;15.20;1.00;;;;;;7384011;19;20190;-65
2022/05/01 11:07:29;;;;;;;12.52;10.30;;;15.30;1.00;;;;;;7361717;19;20021;-64
2022/05/01 11:10:02;;;;;;;15.90;10.88;;;15.10;1.00;;;;;;7361533;19;20020;-63
2022/05/01 11:12:32;;;;;;;14.10;10.48;;;15.50;1.00;;;;;;7359058;19;20014;-65
2022/05/01 11:15:05;;;;;;;14.43;11.23;;;16.20;1.00;;;;;;7362401;19;20110;-64
2022/05/01 11:17:59;;;;;;;15.50;10.15;;;16.00;1.00;;;;;;7362773;19;20027;-63
2022/05/01 11:20:34;;;;;;;13.27;10.07;;;15.90;1.00;;;;;;7364037;19;20014;-63
2022/05/01 11:23:33;;;;;;;13.05;10.25;;;16.10;1.00;;;;;;7381194;19;20046;-63
2022/05/01 11:26:19;;;;;;;14.25;10.45;;;15.60;1.00;;;;;;7363892;19;20030;-65
2022/05/01 11:29:06;;;;;;;14.65;10.27;;;15.60;1.00;;;;;;7361550;19;20017;-63
2022/05/01 11:31:49;;;;;;;13.20;10.05;;;15.50;1.00;;;;;;7358152;19;20010;-64
2022/05/01 11:34:39;;;;;;;13.10;10.18;;;15.40;1.00;;;;;;7362026;19;20021;-64
2022/05/01 11:37:10;;;;;;;12.80;9.85;;;15.70;1.00;;;;;;7361972;19;20006;-64
2022/05/01 11:40:22;;;;;;;14.30;9.57;;;15.80;1.00;;;;;;7361072;19;20034;-65
2022/05/01 11:42:53;;;;;;;11.85;9.25;;;16.10;1.00;;;;;;7358029;19;20466;-66
2022/05/01 11:45:23;;;;;;;14.18;9.50;;;16.20;1.00;;;;;;7361815;19;20078;-64
2022/05/01 11:47:53;;;;;;;11.57;9.32;;;16.20;1.00;;;;;;7357241;19;20505;-62
2022/05/01 11:50:29;;;;;;;11.10;8.60;;;16.40;1.00;;;;;;7362302;19;20014;-65
2022/05/01 11:53:00;;;;;;;12.07;8.27;;;15.90;1.00;;;;;;7380173;19;20021;-65
2022/05/01 12:03:38;;;;;;;12.20;8.60;;;15.90;1.00;;;;;;7359629;19;20011;-64
2022/05/01 12:06:11;;;;;;;13.25;9.10;;;15.50;1.00;;;;;;7362900;19;20054;-63
2022/05/01 12:08:50;;;;;;;12.88;8.43;;;15.70;1.00;;;;;;7357098;19;20363;-65
2022/05/01 12:11:34;;;;;;;11.70;9.20;;;15.60;1.00;;;;;;7357496;19;20494;-63
2022/05/01 12:14:11;;;;;;;9.77;8.30;;;15.30;1.00;;;;;;7384119;19;20018;-63
2022/05/01 12:16:41;;;;;;;11.68;8.90;;;15.20;1.00;;;;;;7369491;19;20022;-64
2022/05/01 12:19:12;;;;;;;10.98;8.73;;;15.50;1.00;;;;;;7365427;19;20234;-64
2022/05/01 12:21:45;;;;;;;11.40;8.52;;;15.80;1.00;;;;;;7362144;19;20010;-65
2022/05/01 12:24:15;;;;;;;10.70;8.95;;;16.20;1.00;;;;;;7366740;19;20021;-64
2022/05/01 12:26:54;;;;;;;14.60;10.45;;;16.00;1.00;;;;;;7367359;19;20190;-64
2022/05/01 12:29:25;;;;;;;11.50;9.10;;;16.30;1.00;;;;;;7363683;19;20374;-65
2022/05/01 12:32:03;;;;;;;14.20;10.90;;;16.00;1.00;;;;;;7384459;19;20181;-65
2022/05/01 12:34:36;;;;;;;13.52;10.02;;;16.30;1.00;;;;;;7366576;19;20698;-64
2022/05/01 12:37:14;;;;;;;13.18;10.35;;;16.20;1.00;;;;;;7367398;19;20114;-64
2022/05/01 12:39:45;;;;;;;14.02;10.90;;;15.70;1.00;;;;;;7364570;19;20343;-64
2022/05/01 12:45:08;;;;;;;13.57;10.45;;;15.70;1.00;;;;;;7365874;19;20016;-64
2022/05/01 12:47:40;;;;;;;12.40;10.13;;;16.00;1.00;;;;;;7366693;19;20034;-64
2022/05/01 12:50:12;;;;;;;12.77;10.52;;;16.00;1.00;;;;;;7388358;19;20079;-63
2022/05/01 12:52:45;;;;;;;15.50;10.43;;;15.80;1.00;;;;;;7361695;19;20093;-64
2022/05/01 12:55:19;;;;;;;12.07;9.65;;;16.00;1.00;;;;;;7364556;19;20018;-64
2022/05/01 12:57:53;;;;;;;;;;;16.30;1.00;;;;;;7364422;19;20007;-64
2022/05/01 13:00:34;;;;;;;12.85;10.38;;;16.40;1.00;;;;;;7367893;19;19918;-64
2022/05/01 13:03:24;;;;;;;13.60;10.27;;;16.30;1.00;;;;;;7362474;19;20027;-63
2022/05/01 13:06:06;;;;;;;11.68;9.23;;;16.20;1.00;;;;;;7365207;19;20119;-64
2022/05/01 13:08:40;;;;;;;13.45;10.02;;;16.10;1.00;;;;;;7361811;19;20548;-64
2022/05/01 13:11:16;;;;;;;14.30;11.63;;;16.20;1.00;;;;;;7387228;19;20082;-64
2022/05/01 13:13:54;;;;;;;15.75;12.07;;;16.40;1.00;;;;;;7364713;19;20082;-64
2022/05/01 13:16:27;;;;;;;15.38;12.20;;;15.90;1.00;;;;;;7367014;19;20514;-64
2022/05/01 13:18:59;;;;;;;15.25;12.48;;;15.60;1.00;;;;;;7362943;19;20022;-64
2022/05/01 13:21:32;;;;;;;16.42;12.77;;;15.50;1.00;;;;;;7362267;19;20010;-64
2022/05/01 13:24:06;;;;;;;17.92;13.02;;;15.60;1.00;;;;;;7365573;19;20014;-64
2022/05/01 13:26:36;;;;;;;16.88;12.52;;;15.50;1.00;;;;;;7365161;19;20025;-64
2022/05/01 13:29:07;;;;;;;15.80;12.18;;;15.50;1.00;;;;;;7383383;19;20043;-64
2022/05/01 13:31:37;;;;;;;18.30;12.48;;;15.70;1.00;;;;;;7360721;19;20931;-64
2022/05/01 13:34:07;;;;;;;15.75;11.80;;;15.90;1.00;;;;;;7364524;19;20017;-63
2022/05/01 13:36:38;;;;;;;16.58;12.65;;;16.00;1.00;;;;;;7366974;19;20469;-63
2022/05/01 13:39:11;;;;;;;16.77;12.88;;;15.90;1.00;;;;;;7361821;19;20018;-64
2022/05/01 13:47:08;;;;;;;16.83;12.75;;;16.20;1.00;;;;;;7387257;19;20015;-62